Airport View

Enter AWOS ICAO identifier for current METAR.

ex. KFNL

KDAB 280253Z 14005KT 9SM RA FEW008 BKN090 OVC110 24/24 A2998 RMK AO2 LTG DSNT E-S TSE51 SLP151 TS DSIPTD P0034 60071 T02390239 50018

28 Sep 2020 03:50

Phone: 386-253-7469

Other Area AWOS: KOMN - KEVB - KDED - KFIN

TAF KDAB 272324Z 2800/2824 07008KT P6SM VCTS SCT035CB BKN070 FM280300 VRB02KT P6SM SCT060 BKN120 FM281500 16007KT P6SM SCT035 BKN250 FM281800 09008KT P6SM VCSH SCT030 BKN060